Puchberg, Austria
Current Conditions -  °F | °C
As of 7:20 PM on Thursday 30 Oct 2014 (Local Time) from LOWW Reporting Station
Haze Haze  
Wind Chill: 45°   Ceiling: Unl
Heat Index: 45°   Visibility: 3mi
Dew Point: 41°   Wind: 3mph
Humidity: 87%   Direction: 180°S
Pressure: 30.3"   Gusts: NA
Location:  47.78°N, 15.92°E
Report Text: LOWW 301720Z 18003KT 5000 BR SCT041 07/05 Q1026 TEMPO 4500
Loading
Personal Weather Stations






























Interactive Weather Map
Tropical Storm Tracking
New forecast layout! Learn more

10-Day Weather Forecast

Advertisements
Track Severe Weather on mobile